WXM80 ListenWXM80 Stop

You find our weather info also at:

UK Metoffice

WeatherCloud

Weather Underground

Northeastern Weather Network

AWEKAS

Citizen Weather Observer Program (CWOP)

HAMweather, WeatherForYou, PWS Weather


Weather Underground History page Text

Daily Summary for January 23, 2017 Units:  English    Metric   Both
« Previous Day
Next Day »
Daily Weekly Monthly Yearly Custom
  High: Low: Average:
Temperature: 42.8 °F 36.9 °F 39.8 °F
Dew Point: 41.2 °F 34.3 °F 36.7 °F
Humidity: 96 % 80 % 89 %
Wind Speed: 24.4 mph 7.7 mph 15.3 mph
Wind Gust: 38.0 mph - -
Wind:- - ENE
Pressure: 29.85 in 29.45 in -
Precipitation: 0.63 in    
Historical Graphs
 
 
Tabular Data for January 23, 2017
Time Temperature Dew Point Pressure Wind Wind Speed Wind Gust Humidity Rainfall Rate (Hourly)
00:02 42.8 °F 41.2 °F 29.81 in East 10.9 mph 15.0 mph 94 % 0.00 in
00:07 42.8 °F 41.2 °F 29.81 in ENE 8.8 mph 11.5 mph 94 % 0.00 in
00:12 42.7 °F 41.1 °F 29.81 in ENE 7.7 mph 13.0 mph 94 % 0.00 in
00:17 42.6 °F 41.0 °F 29.81 in ENE 9.9 mph 12.7 mph 94 % 0.00 in
00:22 42.5 °F 40.9 °F 29.81 in ENE 11.1 mph 16.0 mph 94 % 0.00 in
00:27 42.5 °F 40.9 °F 29.81 in ENE 9.5 mph 15.0 mph 94 % 0.00 in
00:32 42.6 °F 41.0 °F 29.81 in East 11.2 mph 13.8 mph 94 % 0.00 in
00:37 42.6 °F 41.0 °F 29.81 in East 10.3 mph 15.0 mph 94 % 0.00 in
00:42 42.6 °F 41.0 °F 29.81 in ENE 10.6 mph 12.7 mph 94 % 0.00 in
00:47 42.5 °F 40.9 °F 29.81 in ENE 11.3 mph 15.0 mph 94 % 0.00 in
00:52 42.5 °F 40.9 °F 29.81 in East 9.3 mph 12.7 mph 94 % 0.00 in
00:57 42.5 °F 40.9 °F 29.81 in ENE 10.5 mph 15.0 mph 94 % 0.00 in
01:02 42.5 °F 40.9 °F 29.81 in ENE 8.9 mph 11.5 mph 94 % 0.00 in
01:07 42.4 °F 40.8 °F 29.81 in East 9.8 mph 12.7 mph 94 % 0.00 in
01:12 42.3 °F 40.7 °F 29.81 in ENE 11.1 mph 15.0 mph 94 % 0.00 in
01:17 42.3 °F 40.7 °F 29.81 in East 8.9 mph 12.7 mph 94 % 0.00 in
01:22 42.2 °F 40.6 °F 29.81 in ENE 10.9 mph 18.0 mph 94 % 0.00 in
01:27 42.2 °F 40.6 °F 29.81 in ENE 9.9 mph 12.7 mph 94 % 0.00 in
01:33 42.1 °F 40.5 °F 29.81 in East 11.8 mph 16.1 mph 94 % 0.00 in
01:38 42.1 °F 40.8 °F 29.82 in East 10.0 mph 12.0 mph 95 % 0.00 in
01:43 42.0 °F 40.7 °F 29.82 in East 10.1 mph 14.0 mph 95 % 0.00 in
01:48 42.0 °F 40.7 °F 29.83 in ENE 11.8 mph 15.0 mph 95 % 0.00 in
01:53 42.0 °F 40.7 °F 29.83 in ENE 11.8 mph 17.3 mph 95 % 0.00 in
01:58 41.9 °F 40.6 °F 29.83 in NE 10.8 mph 17.3 mph 95 % 0.00 in
02:03 41.9 °F 40.6 °F 29.83 in ENE 12.7 mph 18.4 mph 95 % 0.00 in
02:08 41.9 °F 40.6 °F 29.83 in East 12.0 mph 18.0 mph 95 % 0.00 in
02:13 41.9 °F 40.6 °F 29.84 in NE 11.6 mph 15.0 mph 95 % 0.00 in
02:18 41.9 °F 40.3 °F 29.83 in ENE 11.9 mph 18.0 mph 94 % 0.00 in
02:23 42.0 °F 40.4 °F 29.82 in ENE 12.7 mph 18.4 mph 94 % 0.00 in
02:28 41.9 °F 40.3 °F 29.82 in ENE 11.2 mph 13.8 mph 94 % 0.00 in
02:33 41.9 °F 40.0 °F 29.81 in ENE 13.7 mph 20.7 mph 93 % 0.00 in
02:38 41.9 °F 40.0 °F 29.81 in ENE 13.8 mph 17.3 mph 93 % 0.00 in
02:43 41.9 °F 40.0 °F 29.80 in ENE 11.8 mph 15.0 mph 93 % 0.00 in
02:48 41.9 °F 40.0 °F 29.80 in East 14.7 mph 23.0 mph 93 % 0.00 in
02:53 41.9 °F 40.0 °F 29.80 in NNE 15.9 mph 21.9 mph 93 % 0.00 in
02:58 41.9 °F 40.0 °F 29.80 in ENE 11.8 mph 19.6 mph 93 % 0.00 in
03:03 41.9 °F 40.0 °F 29.80 in East 12.9 mph 19.6 mph 93 % 0.00 in
03:09 41.9 °F 39.7 °F 29.80 in NE 13.6 mph 20.7 mph 92 % 0.00 in
03:14 41.8 °F 39.6 °F 29.80 in ENE 12.9 mph 19.6 mph 92 % 0.00 in
03:19 41.8 °F 39.6 °F 29.80 in East 12.0 mph 18.4 mph 92 % 0.00 in
03:24 41.8 °F 39.6 °F 29.81 in ENE 12.0 mph 22.0 mph 92 % 0.00 in
03:29 41.8 °F 39.6 °F 29.81 in ENE 12.0 mph 15.0 mph 92 % 0.00 in
03:34 41.8 °F 39.6 °F 29.82 in ENE 12.0 mph 16.0 mph 92 % 0.00 in
03:39 41.7 °F 39.5 °F 29.82 in ENE 12.0 mph 17.0 mph 92 % 0.00 in
03:44 41.7 °F 39.5 °F 29.82 in ENE 11.3 mph 16.1 mph 92 % 0.00 in
03:49 41.7 °F 39.5 °F 29.82 in East 12.0 mph 15.0 mph 92 % 0.00 in
03:54 41.7 °F 39.5 °F 29.83 in East 13.0 mph 17.0 mph 92 % 0.00 in
03:59 41.6 °F 39.4 °F 29.82 in East 12.1 mph 15.0 mph 92 % 0.00 in
04:04 41.6 °F 39.4 °F 29.83 in East 13.2 mph 19.6 mph 92 % 0.00 in
04:09 41.7 °F 39.5 °F 29.83 in East 14.0 mph 18.4 mph 92 % 0.00 in
04:14 41.7 °F 39.5 °F 29.82 in NE 13.0 mph 17.3 mph 92 % 0.00 in
04:19 41.6 °F 39.4 °F 29.82 in ENE 11.3 mph 13.8 mph 92 % 0.00 in
04:24 41.5 °F 39.3 °F 29.82 in ENE 12.2 mph 15.0 mph 92 % 0.00 in
04:29 41.4 °F 39.3 °F 29.82 in ENE 11.3 mph 17.3 mph 92 % 0.00 in
04:34 41.4 °F 39.0 °F 29.82 in ENE 12.8 mph 18.4 mph 91 % 0.00 in
04:39 41.4 °F 39.0 °F 29.82 in ENE 14.1 mph 19.0 mph 91 % 0.00 in
04:44 41.4 °F 39.0 °F 29.82 in ENE 12.2 mph 25.3 mph 91 % 0.00 in
04:49 41.4 °F 38.7 °F 29.82 in ENE 12.6 mph 18.4 mph 90 % 0.00 in
04:54 41.4 °F 38.7 °F 29.82 in ENE 11.5 mph 16.0 mph 90 % 0.00 in
04:59 41.5 °F 38.5 °F 29.82 in East 12.7 mph 16.1 mph 89 % 0.00 in
05:04 41.5 °F 38.5 °F 29.83 in ENE 10.8 mph 14.0 mph 89 % 0.00 in
05:09 41.4 °F 38.4 °F 29.83 in East 13.0 mph 16.0 mph 89 % 0.00 in
05:15 41.5 °F 38.5 °F 29.83 in East 12.5 mph 15.0 mph 89 % 0.00 in
05:20 41.4 °F 38.4 °F 29.82 in ENE 13.3 mph 21.9 mph 89 % 0.00 in
05:25 41.4 °F 38.4 °F 29.82 in ENE 12.9 mph 18.4 mph 89 % 0.00 in
05:30 41.4 °F 38.4 °F 29.82 in ENE 11.3 mph 14.0 mph 89 % 0.00 in
05:35 41.3 °F 38.3 °F 29.83 in ENE 11.4 mph 17.3 mph 89 % 0.00 in
05:40 41.3 °F 38.0 °F 29.82 in ENE 12.4 mph 17.3 mph 88 % 0.00 in
05:45 41.2 °F 37.9 °F 29.82 in East 16.3 mph 32.2 mph 88 % 0.00 in
05:50 41.2 °F 37.9 °F 29.82 in ENE 15.4 mph 20.7 mph 88 % 0.00 in
05:55 41.1 °F 37.8 °F 29.83 in East 13.4 mph 19.6 mph 88 % 0.00 in
06:00 41.1 °F 37.5 °F 29.84 in East 12.2 mph 16.1 mph 87 % 0.00 in
06:05 41.1 °F 37.5 °F 29.83 in East 12.0 mph 14.0 mph 87 % 0.00 in
06:10 41.1 °F 37.2 °F 29.82 in East 14.4 mph 17.3 mph 86 % 0.00 in
06:15 41.0 °F 37.1 °F 29.81 in ENE 13.7 mph 17.3 mph 86 % 0.00 in
06:20 40.9 °F 37.0 °F 29.80 in NE 14.4 mph 21.9 mph 86 % 0.00 in
06:25 40.9 °F 37.0 °F 29.81 in East 15.3 mph 20.7 mph 86 % 0.00 in
06:30 40.9 °F 36.7 °F 29.82 in East 13.8 mph 24.2 mph 85 % 0.00 in
06:35 40.9 °F 36.7 °F 29.83 in East 13.7 mph 17.3 mph 85 % 0.00 in
06:41 40.8 °F 36.6 °F 29.83 in ENE 14.6 mph 18.4 mph 85 % 0.00 in
06:46 40.9 °F 36.7 °F 29.83 in NE 15.4 mph 19.0 mph 85 % 0.00 in
06:51 40.8 °F 36.3 °F 29.83 in East 15.6 mph 19.6 mph 84 % 0.00 in
06:56 40.8 °F 36.3 °F 29.83 in ENE 14.6 mph 20.7 mph 84 % 0.00 in
07:01 40.7 °F 36.5 °F 29.82 in ENE 16.6 mph 24.2 mph 85 % 0.00 in
07:06 40.6 °F 36.4 °F 29.83 in NE 15.4 mph 22.0 mph 85 % 0.00 in
07:11 40.5 °F 36.3 °F 29.83 in East 15.2 mph 23.0 mph 85 % 0.00 in
07:16 40.6 °F 36.1 °F 29.83 in East 16.2 mph 24.2 mph 84 % 0.00 in
07:21 40.6 °F 36.1 °F 29.83 in ENE 15.2 mph 20.7 mph 84 % 0.00 in
07:26 40.7 °F 36.2 °F 29.84 in East 13.7 mph 16.1 mph 84 % 0.00 in
07:31 40.7 °F 36.2 °F 29.84 in ENE 13.8 mph 18.0 mph 84 % 0.00 in
07:36 40.6 °F 36.1 °F 29.84 in ENE 16.7 mph 21.9 mph 84 % 0.00 in
07:41 40.5 °F 36.3 °F 29.83 in East 15.4 mph 19.6 mph 85 % 0.00 in
07:46 40.4 °F 36.2 °F 29.83 in ENE 14.9 mph 19.6 mph 85 % 0.00 in
07:51 40.4 °F 35.9 °F 29.84 in ENE 16.6 mph 23.0 mph 84 % 0.00 in
07:56 40.4 °F 35.6 °F 29.83 in East 17.8 mph 25.0 mph 83 % 0.00 in
08:01 40.3 °F 35.2 °F 29.84 in East 19.2 mph 29.9 mph 82 % 0.00 in
08:07 40.4 °F 35.9 °F 29.85 in ENE 15.9 mph 19.6 mph 84 % 0.00 in
08:12 40.3 °F 35.5 °F 29.85 in East 15.2 mph 20.7 mph 83 % 0.00 in
08:17 40.3 °F 35.2 °F 29.85 in ENE 15.7 mph 21.9 mph 82 % 0.00 in
08:22 40.3 °F 35.5 °F 29.85 in ENE 17.4 mph 23.0 mph 83 % 0.00 in
08:27 40.4 °F 35.6 °F 29.85 in East 16.1 mph 21.9 mph 83 % 0.00 in
08:32 40.3 °F 35.8 °F 29.84 in ENE 18.1 mph 24.2 mph 84 % 0.00 in
08:37 40.2 °F 35.8 °F 29.85 in ENE 19.4 mph 23.0 mph 84 % 0.00 in
08:42 40.1 °F 35.4 °F 29.85 in NE 18.0 mph 25.3 mph 83 % 0.00 in
08:47 40.1 °F 35.4 °F 29.84 in ENE 13.5 mph 19.6 mph 83 % 0.00 in
08:52 40.1 °F 35.4 °F 29.84 in NE 16.3 mph 19.6 mph 83 % 0.00 in
08:57 40.1 °F 35.4 °F 29.84 in ENE 15.5 mph 23.0 mph 83 % 0.00 in
09:02 40.1 °F 35.7 °F 29.84 in ENE 15.8 mph 23.0 mph 84 % 0.00 in
09:07 40.1 °F 35.4 °F 29.84 in East 16.1 mph 19.6 mph 83 % 0.00 in
09:12 40.0 °F 34.9 °F 29.83 in ENE 15.4 mph 24.2 mph 82 % 0.00 in
09:17 40.0 °F 34.9 °F 29.83 in East 18.6 mph 27.0 mph 82 % 0.00 in
09:22 40.0 °F 34.9 °F 29.82 in NE 18.6 mph 25.3 mph 82 % 0.00 in
09:27 40.0 °F 34.9 °F 29.83 in ENE 15.9 mph 20.7 mph 82 % 0.00 in
09:33 40.0 °F 34.6 °F 29.84 in ENE 18.9 mph 21.9 mph 81 % 0.00 in
09:38 40.0 °F 34.9 °F 29.84 in East 16.0 mph 18.4 mph 82 % 0.00 in
09:43 40.1 °F 34.7 °F 29.84 in East 18.8 mph 26.0 mph 81 % 0.00 in
09:48 40.1 °F 34.7 °F 29.84 in East 19.4 mph 23.0 mph 81 % 0.00 in
09:53 40.0 °F 34.3 °F 29.83 in East 16.8 mph 20.7 mph 80 % 0.00 in
09:58 40.1 °F 34.7 °F 29.83 in ENE 18.7 mph 26.5 mph 81 % 0.00 in
10:03 40.1 °F 34.7 °F 29.83 in East 17.5 mph 23.0 mph 81 % 0.00 in
10:08 40.1 °F 34.7 °F 29.83 in East 16.5 mph 25.3 mph 81 % 0.00 in
10:13 40.0 °F 34.6 °F 29.84 in ENE 18.5 mph 26.0 mph 81 % 0.00 in
10:18 40.0 °F 34.6 °F 29.83 in East 15.4 mph 24.2 mph 81 % 0.00 in
10:23 40.1 °F 34.7 °F 29.83 in East 15.5 mph 23.0 mph 81 % 0.00 in
10:28 40.1 °F 34.4 °F 29.83 in ENE 18.0 mph 29.9 mph 80 % 0.00 in
10:33 40.0 °F 34.3 °F 29.83 in East 15.4 mph 21.9 mph 80 % 0.00 in
10:38 40.0 °F 34.6 °F 29.84 in ENE 17.3 mph 23.0 mph 81 % 0.00 in
10:43 40.0 °F 34.6 °F 29.84 in East 15.4 mph 23.0 mph 81 % 0.00 in
10:48 40.0 °F 34.9 °F 29.83 in East 15.9 mph 19.6 mph 82 % 0.00 in
10:53 39.9 °F 34.5 °F 29.84 in East 17.1 mph 26.5 mph 81 % 0.00 in
10:58 39.9 °F 34.5 °F 29.83 in East 18.6 mph 24.2 mph 81 % 0.00 in
11:04 39.9 °F 34.9 °F 29.83 in East 15.0 mph 19.6 mph 82 % 0.00 in
11:09 39.9 °F 34.9 °F 29.83 in East 15.1 mph 21.9 mph 82 % 0.00 in
11:14 39.8 °F 34.8 °F 29.82 in NE 18.5 mph 19.6 mph 82 % 0.00 in
11:19 39.8 °F 34.8 °F 29.82 in ENE 16.0 mph 24.0 mph 82 % 0.00 in
11:24 39.9 °F 35.2 °F 29.81 in ENE 18.0 mph 24.0 mph 83 % 0.00 in
11:29 39.8 °F 35.1 °F 29.81 in East 16.0 mph 26.5 mph 83 % 0.00 in
11:34 39.8 °F 35.1 °F 29.80 in ENE 14.0 mph 20.0 mph 83 % 0.00 in
11:39 39.8 °F 35.1 °F 29.80 in ENE 15.0 mph 25.0 mph 83 % 0.00 in
11:44 39.8 °F 35.1 °F 29.79 in ENE 14.1 mph 18.4 mph 83 % 0.00 in
11:49 39.8 °F 35.1 °F 29.78 in ENE 16.0 mph 25.0 mph 83 % 0.00 in
11:54 39.8 °F 35.1 °F 29.79 in ENE 16.0 mph 26.0 mph 83 % 0.00 in
11:59 39.8 °F 35.1 °F 29.79 in East 15.7 mph 25.3 mph 83 % 0.00 in
12:04 39.8 °F 35.1 °F 29.78 in ENE 16.4 mph 25.3 mph 83 % 0.00 in
12:09 39.8 °F 35.1 °F 29.78 in ENE 17.5 mph 24.2 mph 83 % 0.00 in
12:14 39.8 °F 35.1 °F 29.77 in ENE 16.4 mph 24.2 mph 83 % 0.00 in
12:19 39.8 °F 35.1 °F 29.78 in East 15.5 mph 20.7 mph 83 % 0.00 in
12:24 39.8 °F 35.1 °F 29.77 in East 17.6 mph 25.3 mph 83 % 0.00 in
12:29 40.0 °F 35.6 °F 29.77 in East 16.7 mph 23.0 mph 84 % 0.00 in
12:34 40.0 °F 35.6 °F 29.77 in East 16.0 mph 22.0 mph 84 % 0.00 in
12:39 40.0 °F 35.3 °F 29.76 in East 15.4 mph 21.9 mph 83 % 0.00 in
12:44 40.0 °F 35.3 °F 29.76 in East 15.5 mph 21.9 mph 83 % 0.00 in
12:49 40.0 °F 35.3 °F 29.76 in ENE 15.6 mph 26.5 mph 83 % 0.00 in
12:54 40.0 °F 35.3 °F 29.75 in ENE 16.3 mph 19.6 mph 83 % 0.00 in
12:59 40.0 °F 35.6 °F 29.75 in East 17.1 mph 24.2 mph 84 % 0.00 in
13:05 39.9 °F 35.5 °F 29.75 in East 17.5 mph 26.5 mph 84 % 0.00 in
13:10 39.9 °F 35.8 °F 29.75 in ESE 15.1 mph 18.4 mph 85 % 0.00 in
13:15 39.9 °F 35.5 °F 29.74 in ENE 18.7 mph 26.5 mph 84 % 0.00 in
13:20 39.9 °F 35.5 °F 29.73 in ENE 19.3 mph 24.2 mph 84 % 0.00 in
13:25 39.8 °F 35.4 °F 29.72 in East 17.1 mph 25.3 mph 84 % 0.00 in
13:30 39.8 °F 35.4 °F 29.73 in ENE 17.2 mph 20.7 mph 84 % 0.00 in
13:31 39.9 °F 35.2 °F 29.73 in East 15.0 mph 24.2 mph 83 % 0.00 in
13:36 39.9 °F 35.2 °F 29.72 in ENE 14.6 mph 16.1 mph 83 % 0.00 in
13:41 39.9 °F 35.5 °F 29.72 in ENE 13.3 mph 19.6 mph 84 % 0.00 in
13:46 39.9 °F 35.2 °F 29.72 in East 18.1 mph 24.2 mph 83 % 0.00 in
13:51 40.0 °F 34.9 °F 29.72 in ENE 16.1 mph 25.3 mph 82 % 0.00 in
13:56 39.9 °F 34.9 °F 29.72 in ENE 15.1 mph 23.0 mph 82 % 0.00 in
14:01 39.9 °F 35.2 °F 29.72 in NE 17.4 mph 23.0 mph 83 % 0.00 in
14:06 39.9 °F 34.9 °F 29.72 in NE 15.8 mph 23.0 mph 82 % 0.00 in
14:11 39.8 °F 34.4 °F 29.71 in East 18.2 mph 24.2 mph 81 % 0.00 in
14:16 39.8 °F 34.4 °F 29.71 in East 16.9 mph 24.2 mph 81 % 0.00 in
14:21 39.8 °F 34.8 °F 29.70 in East 17.3 mph 25.3 mph 82 % 0.00 in
14:26 39.7 °F 34.7 °F 29.70 in ENE 21.4 mph 29.9 mph 82 % 0.00 in
14:31 39.7 °F 34.7 °F 29.69 in NE 19.8 mph 24.2 mph 82 % 0.00 in
14:36 39.6 °F 34.9 °F 29.70 in ENE 21.4 mph 24.2 mph 83 % 0.00 in
14:41 39.4 °F 34.7 °F 29.69 in ENE 21.4 mph 28.8 mph 83 % 0.00 in
14:46 39.3 °F 34.9 °F 29.68 in East 19.6 mph 28.8 mph 84 % 0.00 in
14:52 39.2 °F 34.5 °F 29.68 in NE 18.3 mph 26.5 mph 83 % 0.00 in
14:57 39.3 °F 35.2 °F 29.68 in NE 16.9 mph 23.0 mph 85 % 0.00 in
15:02 39.3 °F 34.6 °F 29.67 in ENE 20.1 mph 38.0 mph 83 % 0.00 in
15:07 39.3 °F 34.9 °F 29.68 in ENE 18.1 mph 26.5 mph 84 % 0.00 in
15:12 39.3 °F 35.2 °F 29.68 in ENE 18.5 mph 24.2 mph 85 % 0.00 in
15:17 39.2 °F 35.1 °F 29.67 in ENE 17.8 mph 25.3 mph 85 % 0.00 in
15:22 39.2 °F 35.1 °F 29.66 in East 21.4 mph 27.6 mph 85 % 0.00 in
15:27 39.2 °F 35.1 °F 29.67 in East 20.6 mph 28.8 mph 85 % 0.00 in
15:32 39.2 °F 34.8 °F 29.67 in East 23.3 mph 31.1 mph 84 % 0.00 in
15:37 39.3 °F 34.9 °F 29.67 in ENE 20.5 mph 31.1 mph 84 % 0.00 in
15:42 39.3 °F 35.2 °F 29.66 in ENE 17.0 mph 25.3 mph 85 % 0.00 in
15:47 39.4 °F 35.3 °F 29.67 in ENE 16.6 mph 23.0 mph 85 % 0.00 in
15:52 39.4 °F 35.0 °F 29.67 in ENE 17.9 mph 25.3 mph 84 % 0.00 in
15:57 39.4 °F 35.0 °F 29.67 in ENE 20.2 mph 25.0 mph 84 % 0.00 in
16:02 39.5 °F 35.4 °F 29.66 in East 20.8 mph 27.0 mph 85 % 0.00 in
16:07 39.3 °F 34.9 °F 29.65 in ENE 22.5 mph 29.9 mph 84 % 0.00 in
16:12 39.3 °F 35.2 °F 29.66 in ENE 20.3 mph 29.0 mph 85 % 0.00 in
16:17 39.3 °F 35.2 °F 29.65 in East 20.6 mph 30.0 mph 85 % 0.00 in
16:23 39.2 °F 35.1 °F 29.64 in ENE 23.2 mph 26.5 mph 85 % 0.00 in
16:28 39.2 °F 35.4 °F 29.64 in ENE 23.0 mph 28.0 mph 86 % 0.00 in
16:33 39.3 °F 35.2 °F 29.64 in NE 20.4 mph 33.4 mph 85 % 0.00 in
16:38 39.3 °F 35.2 °F 29.63 in ENE 20.9 mph 25.3 mph 85 % 0.00 in
16:43 39.3 °F 35.2 °F 29.63 in East 19.9 mph 31.1 mph 85 % 0.00 in
16:48 39.4 °F 35.3 °F 29.64 in ENE 19.0 mph 29.9 mph 85 % 0.00 in
16:53 39.4 °F 35.3 °F 29.64 in ENE 17.1 mph 25.3 mph 85 % 0.00 in
16:58 39.5 °F 35.4 °F 29.64 in ENE 20.7 mph 32.2 mph 85 % 0.00 in
17:03 39.4 °F 35.6 °F 29.64 in ENE 15.0 mph 27.6 mph 86 % 0.00 in
17:08 39.3 °F 35.5 °F 29.64 in East 24.4 mph 31.1 mph 86 % 0.00 in
17:13 39.1 °F 35.8 °F 29.64 in ENE 20.1 mph 29.0 mph 88 % 0.00 in
17:18 39.0 °F 36.0 °F 29.64 in East 18.9 mph 31.1 mph 89 % 0.00 in
17:23 38.9 °F 35.9 °F 29.64 in NE 16.7 mph 24.2 mph 89 % 0.00 in
17:28 38.9 °F 35.9 °F 29.64 in NNE 20.1 mph 26.0 mph 89 % 0.01 in
17:33 38.8 °F 35.8 °F 29.64 in ENE 18.4 mph 26.0 mph 89 % 0.01 in
17:38 38.8 °F 35.8 °F 29.64 in NE 18.4 mph 22.0 mph 89 % 0.01 in
17:43 38.8 °F 35.8 °F 29.64 in NE 15.9 mph 24.2 mph 89 % 0.01 in
17:48 38.8 °F 35.8 °F 29.63 in ENE 17.9 mph 26.0 mph 89 % 0.02 in
17:53 38.7 °F 36.0 °F 29.63 in ENE 15.4 mph 21.0 mph 90 % 0.03 in
17:59 38.7 °F 36.0 °F 29.64 in ENE 18.4 mph 24.2 mph 90 % 0.03 in
18:04 38.6 °F 36.2 °F 29.64 in ENE 15.2 mph 18.0 mph 91 % 0.04 in
18:09 38.5 °F 36.1 °F 29.64 in NE 15.8 mph 23.0 mph 91 % 0.06 in
18:14 38.4 °F 36.3 °F 29.64 in NE 17.3 mph 25.3 mph 92 % 0.07 in
18:19 38.4 °F 36.2 °F 29.65 in ENE 15.0 mph 25.0 mph 92 % 0.00 in
18:24 38.3 °F 36.5 °F 29.65 in ENE 18.0 mph 26.0 mph 93 % 0.00 in
18:29 38.2 °F 36.4 °F 29.66 in ENE 14.0 mph 25.0 mph 93 % 0.00 in
18:34 38.2 °F 36.4 °F 29.66 in ENE 14.0 mph 25.0 mph 93 % 0.00 in
18:39 38.1 °F 36.3 °F 29.65 in NNE 15.5 mph 25.3 mph 93 % 0.12 in
18:44 38.1 °F 36.3 °F 29.65 in ENE 16.0 mph 23.0 mph 93 % 0.00 in
18:49 38.0 °F 36.4 °F 29.66 in ENE 13.4 mph 25.3 mph 94 % 0.13 in
18:54 38.0 °F 36.4 °F 29.65 in ENE 15.0 mph 26.0 mph 94 % 0.00 in
18:59 37.9 °F 36.3 °F 29.64 in ENE 15.2 mph 18.4 mph 94 % 0.14 in
19:04 37.9 °F 36.3 °F 29.63 in ENE 14.0 mph 24.0 mph 94 % 0.01 in
19:09 37.9 °F 36.3 °F 29.63 in ENE 15.0 mph 21.0 mph 94 % 0.00 in
19:14 37.9 °F 36.3 °F 29.63 in ENE 16.0 mph 23.0 mph 94 % 0.00 in
19:19 37.9 °F 36.6 °F 29.63 in ENE 14.0 mph 21.0 mph 95 % 0.00 in
19:24 37.8 °F 36.5 °F 29.64 in ENE 16.0 mph 22.0 mph 95 % 0.01 in
19:29 37.8 °F 36.5 °F 29.64 in ENE 14.0 mph 22.0 mph 95 % 0.01 in
19:34 37.8 °F 36.5 °F 29.64 in ENE 14.0 mph 21.0 mph 95 % 0.01 in
19:39 37.7 °F 36.4 °F 29.64 in NE 14.0 mph 21.0 mph 95 % 0.01 in
19:44 37.7 °F 36.4 °F 29.64 in NE 13.7 mph 18.4 mph 95 % 0.13 in
19:49 37.7 °F 36.4 °F 29.63 in ENE 14.0 mph 25.0 mph 95 % 0.00 in
19:54 37.6 °F 36.3 °F 29.63 in ENE 10.0 mph 23.0 mph 95 % 0.00 in
19:59 37.6 °F 36.3 °F 29.63 in NNE 11.9 mph 16.1 mph 95 % 0.13 in
20:04 37.5 °F 36.2 °F 29.62 in NE 11.0 mph 19.6 mph 95 % 0.13 in
20:09 37.3 °F 36.0 °F 29.61 in ENE 16.4 mph 23.0 mph 95 % 0.12 in
20:14 37.3 °F 36.0 °F 29.61 in East 15.8 mph 24.2 mph 95 % 0.13 in
20:19 37.2 °F 35.9 °F 29.61 in ENE 12.4 mph 19.0 mph 95 % 0.13 in
20:24 37.1 °F 35.8 °F 29.60 in ENE 11.3 mph 19.6 mph 95 % 0.13 in
20:29 37.1 °F 35.8 °F 29.60 in ENE 12.4 mph 21.0 mph 95 % 0.12 in
20:34 37.0 °F 35.7 °F 29.60 in East 14.1 mph 19.6 mph 95 % 0.11 in
20:39 37.0 °F 35.7 °F 29.60 in NNE 13.3 mph 23.0 mph 95 % 0.11 in
20:44 37.0 °F 35.7 °F 29.60 in NE 13.5 mph 20.7 mph 95 % 0.11 in
20:50 37.0 °F 35.7 °F 29.59 in NE 11.3 mph 21.9 mph 95 % 0.10 in
20:55 36.9 °F 35.6 °F 29.59 in East 15.4 mph 24.2 mph 95 % 0.10 in
21:00 37.0 °F 35.7 °F 29.58 in ENE 16.9 mph 26.5 mph 95 % 0.08 in
21:05 37.0 °F 35.7 °F 29.58 in NE 16.2 mph 25.3 mph 95 % 0.07 in
21:10 37.0 °F 35.7 °F 29.58 in NE 18.1 mph 27.0 mph 95 % 0.07 in
21:15 37.0 °F 35.7 °F 29.58 in ENE 14.7 mph 25.3 mph 95 % 0.06 in
21:20 37.0 °F 35.7 °F 29.57 in ENE 14.7 mph 25.3 mph 95 % 0.05 in
21:25 37.0 °F 35.7 °F 29.57 in East 17.4 mph 27.6 mph 95 % 0.04 in
21:30 37.0 °F 35.7 °F 29.56 in ENE 18.4 mph 24.2 mph 95 % 0.05 in
21:35 37.0 °F 35.7 °F 29.56 in NNE 16.8 mph 25.0 mph 95 % 0.05 in
21:40 37.1 °F 35.8 °F 29.56 in ENE 18.3 mph 27.6 mph 95 % 0.05 in
21:45 37.1 °F 35.8 °F 29.55 in NE 17.8 mph 26.5 mph 95 % 0.05 in
21:50 37.1 °F 35.8 °F 29.54 in ENE 17.3 mph 24.2 mph 95 % 0.06 in
21:55 37.1 °F 36.1 °F 29.54 in NE 13.6 mph 24.0 mph 96 % 0.05 in
22:00 37.1 °F 36.1 °F 29.54 in ENE 17.2 mph 27.6 mph 96 % 0.06 in
22:06 37.1 °F 36.1 °F 29.54 in ENE 13.6 mph 23.0 mph 96 % 0.07 in
22:11 37.3 °F 36.3 °F 29.53 in NE 14.4 mph 23.0 mph 96 % 0.06 in
22:16 37.2 °F 36.2 °F 29.52 in ENE 18.1 mph 26.5 mph 96 % 0.07 in
22:21 37.3 °F 36.3 °F 29.52 in ENE 16.9 mph 26.5 mph 96 % 0.07 in
22:26 37.2 °F 36.2 °F 29.51 in ENE 15.8 mph 26.5 mph 96 % 0.07 in
22:31 37.2 °F 36.2 °F 29.51 in NE 15.8 mph 22.0 mph 96 % 0.08 in
22:36 37.2 °F 36.2 °F 29.51 in NNE 13.2 mph 26.5 mph 96 % 0.07 in
22:41 37.2 °F 36.2 °F 29.51 in East 15.8 mph 23.0 mph 96 % 0.08 in
22:46 37.3 °F 36.3 °F 29.50 in ENE 17.0 mph 24.0 mph 96 % 0.08 in
22:51 37.3 °F 36.3 °F 29.50 in NE 12.3 mph 22.0 mph 96 % 0.07 in
22:56 37.3 °F 36.3 °F 29.49 in ENE 14.3 mph 23.0 mph 96 % 0.09 in
23:01 37.3 °F 36.3 °F 29.49 in East 18.6 mph 24.0 mph 96 % 0.08 in
23:06 37.3 °F 36.3 °F 29.49 in ENE 15.5 mph 26.5 mph 96 % 0.08 in
23:11 37.3 °F 36.3 °F 29.48 in ENE 14.6 mph 19.0 mph 96 % 0.09 in
23:16 37.4 °F 36.4 °F 29.48 in ENE 16.0 mph 26.5 mph 96 % 0.09 in
23:21 37.5 °F 36.5 °F 29.48 in ENE 16.8 mph 22.0 mph 96 % 0.09 in
23:26 37.5 °F 36.5 °F 29.47 in ENE 18.0 mph 24.2 mph 96 % 0.09 in
23:32 37.5 °F 36.5 °F 29.47 in ENE 16.7 mph 23.0 mph 96 % 0.09 in
23:37 37.5 °F 36.5 °F 29.47 in NE 15.5 mph 19.6 mph 96 % 0.10 in
23:42 37.6 °F 36.6 °F 29.46 in ENE 12.9 mph 19.6 mph 96 % 0.10 in
23:47 37.6 °F 36.6 °F 29.45 in ENE 17.5 mph 26.5 mph 96 % 0.10 in
23:52 37.6 °F 36.6 °F 29.45 in NE 13.5 mph 20.7 mph 96 % 0.10 in
23:57 37.7 °F 36.7 °F 29.45 in East 15.3 mph 24.2 mph 96 % 0.10 in
Crab Meadow Weather
Compliments of Weather Underground - 3 mb

Script developed by  Jim McMurry - jmcmurry@mwt.net Adapted for the template by  Wim van der Kuil - Leuven-Template.eu

Weather Terms: Rain/Showers - Rain is a nearly steady and uniform fall of precipitation over an area. Showers are intermittent and/or scattered convective rainfall of varying intensity.